createdAt,value
2022-11-19T00:01:32.512Z,33.80
2022-11-19T00:03:59.444Z,33.53
2022-11-19T00:06:27.647Z,33.63
2022-11-19T00:08:55.337Z,31.80
2022-11-19T00:11:43.112Z,32.67
2022-11-19T00:14:12.651Z,31.73
2022-11-19T00:16:40.412Z,32.35
2022-11-19T00:19:07.930Z,31.35
2022-11-19T00:21:34.863Z,32.45
2022-11-19T00:24:01.853Z,33.42
2022-11-19T00:26:28.856Z,33.58
2022-11-19T00:28:55.908Z,35.30
2022-11-19T00:31:23.089Z,34.95
2022-11-19T00:33:54.689Z,35.05
2022-11-19T00:36:22.414Z,37.25
2022-11-19T00:38:49.425Z,35.13
2022-11-19T00:41:16.839Z,34.08
2022-11-19T00:43:52.380Z,33.20
2022-11-19T00:46:22.431Z,29.13
2022-11-19T00:48:50.945Z,29.35
2022-11-19T00:51:33.972Z,29.15
2022-11-19T00:54:14.456Z,26.63
2022-11-19T00:56:41.638Z,24.52
2022-11-19T00:59:08.646Z,28.33
2022-11-19T01:01:35.603Z,26.85
2022-11-19T01:04:02.698Z,30.02
2022-11-19T01:06:29.952Z,26.30
2022-11-19T01:08:57.400Z,26.98
2022-11-19T01:11:28.227Z,24.35
2022-11-19T01:13:55.765Z,23.05
2022-11-19T01:16:28.980Z,24.05
2022-11-19T01:18:56.412Z,22.15
2022-11-19T01:21:25.872Z,21.95
2022-11-19T01:23:52.827Z,22.75
2022-11-19T01:26:20.357Z,24.33
2022-11-19T01:28:47.508Z,22.60
2022-11-19T01:31:20.804Z,24.55
2022-11-19T01:33:48.284Z,25.45
2022-11-19T01:36:21.625Z,26.58
2022-11-19T01:38:52.095Z,27.75
2022-11-19T01:41:20.567Z,26.85
2022-11-19T01:43:49.312Z,30.15
2022-11-19T01:46:21.783Z,26.90
2022-11-19T01:48:51.575Z,24.73
2022-11-19T01:51:21.345Z,23.80
2022-11-19T01:53:50.867Z,25.17
2022-11-19T01:56:20.061Z,22.58
2022-11-19T01:58:50.087Z,22.27
2022-11-19T02:01:19.165Z,23.13
2022-11-19T02:03:48.195Z,23.80
2022-11-19T02:06:15.265Z,23.02
2022-11-19T02:08:47.482Z,23.48
2022-11-19T02:11:26.249Z,24.33
2022-11-19T02:14:24.105Z,25.23
2022-11-19T02:17:21.107Z,25.02
2022-11-19T02:20:25.409Z,23.83
2022-11-19T02:23:10.981Z,23.55
2022-11-19T02:26:05.289Z,22.63
2022-11-19T02:28:54.143Z,19.73
2022-11-19T02:31:42.189Z,20.33
2022-11-19T02:34:12.259Z,21.15
2022-11-19T02:36:48.671Z,18.83
2022-11-19T02:39:26.599Z,17.30
2022-11-19T02:42:05.539Z,16.95
2022-11-19T02:45:00.387Z,19.90
2022-11-19T02:47:44.118Z,19.85
2022-11-19T02:50:19.768Z,17.42
2022-11-19T02:52:47.816Z,19.17
2022-11-19T02:55:20.207Z,19.58
2022-11-19T02:58:35.196Z,18.63
2022-11-19T03:01:23.559Z,18.30
2022-11-19T03:04:11.556Z,17.83
2022-11-19T03:06:39.638Z,18.20
2022-11-19T03:09:06.582Z,18.35
2022-11-19T03:11:33.701Z,20.10
2022-11-19T03:14:39.776Z,21.35
2022-11-19T03:17:17.964Z,21.38
2022-11-19T03:20:10.364Z,20.65
2022-11-19T03:22:45.719Z,19.10
2022-11-19T03:25:22.750Z,18.20
2022-11-19T03:27:53.670Z,18.85
2022-11-19T03:30:20.946Z,18.42
2022-11-19T03:33:07.540Z,19.17
2022-11-19T03:35:46.995Z,17.02
2022-11-19T03:38:20.289Z,18.42
2022-11-19T03:40:48.989Z,16.83
2022-11-19T03:43:19.322Z,17.88
2022-11-19T03:45:49.337Z,18.65
2022-11-19T03:48:17.929Z,17.80
2022-11-19T03:51:00.393Z,16.00
2022-11-19T03:53:28.951Z,14.80
2022-11-19T03:56:04.288Z,14.80
2022-11-19T03:58:45.032Z,16.38
2022-11-19T04:01:13.038Z,15.40
2022-11-19T04:03:40.168Z,14.80
2022-11-19T04:06:07.513Z,16.75
2022-11-19T04:08:34.453Z,14.68
2022-11-19T04:13:27.154Z,12.98
2022-11-19T04:15:54.057Z,12.30
2022-11-19T04:18:21.005Z,14.02
2022-11-19T04:20:47.946Z,12.90
2022-11-19T04:23:14.859Z,13.63
2022-11-19T04:25:47.013Z,14.35
2022-11-19T04:28:13.951Z,13.73
2022-11-19T04:30:40.888Z,12.75
2022-11-19T04:33:08.065Z,12.45
2022-11-19T04:35:35.028Z,12.60
2022-11-19T04:38:02.027Z,12.90
2022-11-19T04:40:28.985Z,10.88
2022-11-19T04:42:55.961Z,12.38
2022-11-19T04:45:22.918Z,11.20
2022-11-19T04:47:49.935Z,11.68
2022-11-19T04:50:16.934Z,11.25
2022-11-19T04:52:43.866Z,11.82
2022-11-19T04:55:10.996Z,9.32
2022-11-19T04:57:37.946Z,11.18
2022-11-19T05:00:06.039Z,11.00
2022-11-19T05:02:33.140Z,11.98
2022-11-19T05:05:00.131Z,12.73
2022-11-19T05:07:27.286Z,11.25
2022-11-19T05:09:54.278Z,10.48
2022-11-19T05:12:21.214Z,10.30
2022-11-19T05:14:48.252Z,12.57
2022-11-19T05:17:15.160Z,12.10
2022-11-19T05:19:42.037Z,10.60
2022-11-19T05:22:09.131Z,11.82
2022-11-19T05:24:36.041Z,11.98
2022-11-19T05:27:03.754Z,11.68
2022-11-19T05:29:30.667Z,11.48
2022-11-19T05:31:57.617Z,12.10
2022-11-19T05:34:24.550Z,12.63
2022-11-19T05:36:51.472Z,11.52
2022-11-19T05:39:22.175Z,11.00
2022-11-19T05:41:49.896Z,11.52
2022-11-19T05:44:17.785Z,10.50
2022-11-19T05:46:44.711Z,10.20
2022-11-19T05:49:11.967Z,11.88
2022-11-19T05:51:39.050Z,12.60
2022-11-19T05:54:06.159Z,12.75
2022-11-19T05:56:33.296Z,11.57
2022-11-19T05:59:00.233Z,11.70
2022-11-19T06:01:29.627Z,10.82
2022-11-19T06:03:57.213Z,11.07
2022-11-19T06:06:24.371Z,10.43
2022-11-19T06:08:51.690Z,9.88
2022-11-19T06:11:37.478Z,9.63
2022-11-19T06:14:04.569Z,9.60
2022-11-19T06:16:31.582Z,8.85
2022-11-19T06:18:58.483Z,8.60
2022-11-19T06:21:25.380Z,8.13
2022-11-19T06:23:52.390Z,8.20
2022-11-19T06:26:26.916Z,8.70
2022-11-19T06:28:54.338Z,9.23
2022-11-19T06:31:21.817Z,9.82
2022-11-19T06:33:49.737Z,10.32
2022-11-19T06:36:17.103Z,10.85
2022-11-19T06:38:45.795Z,11.40
2022-11-19T06:41:12.716Z,13.10
2022-11-19T06:43:39.700Z,13.80
2022-11-19T06:46:06.615Z,13.65
2022-11-19T06:48:33.574Z,12.73
2022-11-19T06:51:01.754Z,11.70
2022-11-19T06:53:29.279Z,12.43
2022-11-19T06:55:57.573Z,11.05
2022-11-19T06:58:24.652Z,11.55
2022-11-19T07:00:51.760Z,11.68
2022-11-19T07:03:19.104Z,10.30
2022-11-19T07:05:54.594Z,12.80
2022-11-19T07:08:21.585Z,13.50
2022-11-19T07:10:48.491Z,13.60
2022-11-19T07:13:15.413Z,14.27
2022-11-19T07:15:43.228Z,14.07
2022-11-19T07:18:10.463Z,13.35
2022-11-19T07:20:37.617Z,15.88
2022-11-19T07:23:04.634Z,20.65
2022-11-19T07:25:31.513Z,15.85
2022-11-19T07:27:58.428Z,15.48
2022-11-19T07:30:25.401Z,14.52
2022-11-19T07:32:53.765Z,17.00
2022-11-19T07:35:20.839Z,18.02
2022-11-19T07:37:47.712Z,16.08
2022-11-19T07:40:16.786Z,16.85
2022-11-19T07:42:49.688Z,18.05
2022-11-19T07:45:18.102Z,20.92
2022-11-19T07:47:45.220Z,19.92
2022-11-19T07:50:12.685Z,24.10
2022-11-19T07:52:39.891Z,23.25
2022-11-19T07:55:07.431Z,21.08
2022-11-19T07:57:34.467Z,20.23
2022-11-19T08:00:01.567Z,19.20
2022-11-19T08:02:28.453Z,20.27
2022-11-19T08:04:55.392Z,21.85
2022-11-19T08:07:23.070Z,21.80
2022-11-19T08:09:50.339Z,21.70
2022-11-19T08:12:17.307Z,20.67
2022-11-19T08:14:44.271Z,21.77
2022-11-19T08:17:30.396Z,22.55
2022-11-19T08:19:57.344Z,21.90
2022-11-19T08:22:24.868Z,23.58
2022-11-19T08:24:52.795Z,26.63
2022-11-19T08:27:19.822Z,24.25
2022-11-19T08:29:46.973Z,23.98
2022-11-19T08:32:14.684Z,22.58
2022-11-19T08:34:41.680Z,21.70
2022-11-19T08:37:08.680Z,21.08
2022-11-19T08:39:35.574Z,19.13
2022-11-19T08:42:20.970Z,17.73
2022-11-19T08:44:47.857Z,17.33
2022-11-19T08:47:14.896Z,17.02
2022-11-19T08:49:41.856Z,15.35
2022-11-19T08:52:08.871Z,15.88
2022-11-19T08:54:35.848Z,15.30
2022-11-19T08:57:02.791Z,13.73
2022-11-19T08:59:29.721Z,13.38
2022-11-19T09:01:56.736Z,11.00
2022-11-19T09:04:23.666Z,11.88
2022-11-19T09:06:50.632Z,9.95
2022-11-19T09:09:18.037Z,7.90
2022-11-19T09:11:45.124Z,7.93
2022-11-19T09:14:12.069Z,8.15
2022-11-19T09:16:39.090Z,10.05
2022-11-19T09:19:06.097Z,10.27
2022-11-19T09:21:33.268Z,13.00
2022-11-19T09:24:00.375Z,14.98
2022-11-19T09:26:27.540Z,15.85
2022-11-19T09:28:54.660Z,14.07
2022-11-19T09:31:21.917Z,16.08
2022-11-19T09:33:51.900Z,18.13
2022-11-19T09:36:19.630Z,16.75
2022-11-19T09:38:47.358Z,15.90
2022-11-19T09:41:39.835Z,15.75
2022-11-19T09:44:24.933Z,17.38
2022-11-19T09:47:17.397Z,17.35
2022-11-19T09:49:50.465Z,19.63
2022-11-19T09:54:53.264Z,21.05
2022-11-19T09:57:39.456Z,21.67
2022-11-19T10:00:08.587Z,18.35
2022-11-19T10:02:35.764Z,17.30
2022-11-19T10:05:03.753Z,17.70
2022-11-19T10:07:45.384Z,18.55
2022-11-19T10:10:30.776Z,21.13
2022-11-19T10:13:12.075Z,23.92
2022-11-19T10:16:06.144Z,25.77
2022-11-19T10:19:06.769Z,25.42
2022-11-19T10:21:36.434Z,26.10
2022-11-19T10:24:31.826Z,28.02
2022-11-19T10:27:08.278Z,27.50
2022-11-19T10:29:40.307Z,27.10
2022-11-19T10:32:41.436Z,26.98
2022-11-19T10:35:32.135Z,24.13
2022-11-19T10:38:21.160Z,24.98
2022-11-19T10:40:59.742Z,24.60
2022-11-19T10:43:48.327Z,23.48
2022-11-19T10:46:24.756Z,21.35
2022-11-19T10:49:04.344Z,21.85
2022-11-19T10:51:40.983Z,21.70
2022-11-19T10:54:27.915Z,20.80
2022-11-19T10:56:56.407Z,18.42
2022-11-19T10:59:26.323Z,18.38
2022-11-19T11:01:59.504Z,16.98
2022-11-19T11:04:28.678Z,17.60
2022-11-19T11:07:02.184Z,18.63
2022-11-19T11:09:41.073Z,18.83
2022-11-19T11:12:35.095Z,17.67
2022-11-19T11:15:23.165Z,15.48
2022-11-19T11:18:09.121Z,18.13
2022-11-19T11:20:37.525Z,16.95
2022-11-19T11:23:10.945Z,16.90
2022-11-19T11:25:41.378Z,16.98
2022-11-19T11:28:16.259Z,16.20
2022-11-19T11:31:04.378Z,17.58
2022-11-19T11:33:33.320Z,16.83
2022-11-19T11:36:13.342Z,18.42
2022-11-19T11:39:01.547Z,22.90
2022-11-19T11:44:34.357Z,18.80
2022-11-19T11:47:05.207Z,18.67
2022-11-19T11:49:44.040Z,19.70
2022-11-19T11:52:23.930Z,19.15
2022-11-19T11:55:03.470Z,18.17
2022-11-19T11:57:33.105Z,18.23
2022-11-19T12:00:02.445Z,18.90
2022-11-19T12:02:34.824Z,18.35
2022-11-19T12:05:07.807Z,18.02
2022-11-19T12:08:06.879Z,21.05
2022-11-19T12:11:08.833Z,19.95
2022-11-19T12:13:50.140Z,19.77
2022-11-19T12:16:32.220Z,19.13
2022-11-19T12:19:04.928Z,16.90
2022-11-19T12:21:55.587Z,16.25
2022-11-19T12:24:36.305Z,16.80
2022-11-19T12:27:30.804Z,19.55
2022-11-19T12:30:07.088Z,18.27
2022-11-19T12:32:49.006Z,19.70
2022-11-19T12:35:34.220Z,17.58
2022-11-19T12:38:13.300Z,19.98
2022-11-19T12:41:05.735Z,21.38
2022-11-19T12:43:54.391Z,20.02
2022-11-19T12:47:02.001Z,21.95
2022-11-19T12:49:38.027Z,24.17
2022-11-19T12:52:23.432Z,25.10
2022-11-19T12:55:23.722Z,22.95
2022-11-19T12:58:44.715Z,21.75
2022-11-19T13:01:26.664Z,20.02
2022-11-19T13:04:16.927Z,22.83
2022-11-19T13:06:55.921Z,23.92
2022-11-19T13:09:22.841Z,22.60
2022-11-19T13:11:55.423Z,25.02
2022-11-19T13:14:35.752Z,21.92
2022-11-19T13:17:07.884Z,23.33
2022-11-19T13:19:38.408Z,23.93
2022-11-19T13:22:16.576Z,25.70
2022-11-19T13:24:50.090Z,21.13
2022-11-19T13:27:23.238Z,25.25
2022-11-19T13:30:04.419Z,23.50
2022-11-19T13:32:47.474Z,23.33
2022-11-19T13:35:42.415Z,25.83
2022-11-19T13:38:12.103Z,24.40
2022-11-19T13:40:38.950Z,23.95
2022-11-19T13:43:34.687Z,26.00
2022-11-19T13:46:13.620Z,24.90
2022-11-19T13:48:52.549Z,22.90
2022-11-19T13:51:28.322Z,21.55
2022-11-19T13:54:02.678Z,20.63
2022-11-19T13:56:48.488Z,20.15
2022-11-19T13:59:33.770Z,19.65
2022-11-19T14:02:22.285Z,22.08
2022-11-19T14:05:19.727Z,20.75
2022-11-19T14:08:25.563Z,24.17
2022-11-19T14:11:39.646Z,24.00
2022-11-19T14:14:59.424Z,23.63
2022-11-19T14:18:09.509Z,23.80
2022-11-19T14:20:58.708Z,25.98
2022-11-19T14:24:08.039Z,27.60
2022-11-19T14:26:40.722Z,27.65
2022-11-19T14:29:25.647Z,27.40
2022-11-19T14:32:05.342Z,27.20
2022-11-19T14:34:34.677Z,24.20
2022-11-19T14:37:11.513Z,27.05
2022-11-19T14:39:43.696Z,23.45
2022-11-19T14:42:28.498Z,23.95
2022-11-19T14:45:01.284Z,21.90
2022-11-19T14:47:33.734Z,24.65
2022-11-19T14:50:07.608Z,24.33
2022-11-19T14:52:39.999Z,24.00
2022-11-19T14:55:24.765Z,25.52
2022-11-19T14:58:03.780Z,25.88
2022-11-19T15:00:41.696Z,27.23
2022-11-19T15:03:16.556Z,26.23
2022-11-19T15:05:45.946Z,28.58
2022-11-19T15:08:18.983Z,32.17
2022-11-19T15:13:33.895Z,30.58
2022-11-19T15:16:20.062Z,28.10
2022-11-19T15:18:46.922Z,29.88
2022-11-19T15:21:54.828Z,28.23
2022-11-19T15:24:37.113Z,28.20
2022-11-19T15:27:42.664Z,26.73
2022-11-19T15:30:12.368Z,26.73
2022-11-19T15:32:48.383Z,28.20
2022-11-19T15:35:52.370Z,28.20
2022-11-19T15:38:22.681Z,34.65
2022-11-19T15:40:53.355Z,29.60
2022-11-19T15:43:27.607Z,29.63
2022-11-19T15:46:07.624Z,29.48
2022-11-19T15:49:08.219Z,28.30
2022-11-19T15:51:51.112Z,27.92
2022-11-19T15:54:18.077Z,19.75
2022-11-19T15:56:50.451Z,30.17
2022-11-19T15:59:19.449Z,31.20
2022-11-19T16:02:01.094Z,31.95
2022-11-19T16:04:37.701Z,35.28
2022-11-19T16:07:09.609Z,37.42
2022-11-19T16:09:37.290Z,41.20
2022-11-19T16:12:23.122Z,40.47
2022-11-19T16:15:12.225Z,44.08
2022-11-19T16:17:47.886Z,42.85
2022-11-19T16:20:20.596Z,42.80
2022-11-19T16:22:52.905Z,41.90
2022-11-19T16:25:33.653Z,39.92
2022-11-19T16:28:13.148Z,42.80
2022-11-19T16:30:50.300Z,43.00
2022-11-19T16:33:24.308Z,42.80
2022-11-19T16:35:53.442Z,40.25
2022-11-19T16:38:28.006Z,41.95
2022-11-19T16:41:15.541Z,42.60
2022-11-19T16:43:44.955Z,41.38
2022-11-19T16:46:17.772Z,42.53
2022-11-19T16:48:50.604Z,35.08
2022-11-19T16:51:53.054Z,35.40
2022-11-19T16:54:49.214Z,36.13
2022-11-19T16:57:19.975Z,37.33
2022-11-19T16:59:50.472Z,36.67
2022-11-19T17:02:20.205Z,35.10
2022-11-19T17:04:50.111Z,29.63
2022-11-19T17:07:27.932Z,26.52
2022-11-19T17:10:24.490Z,21.83
2022-11-19T17:13:13.364Z,22.60
2022-11-19T17:15:45.003Z,21.02
2022-11-19T17:18:35.636Z,20.38
2022-11-19T17:21:07.112Z,19.15
2022-11-19T17:23:46.419Z,20.05
2022-11-19T17:26:18.440Z,19.45
2022-11-19T17:28:51.257Z,19.02
2022-11-19T17:31:26.451Z,19.33
2022-11-19T17:34:12.417Z,17.85
2022-11-19T17:36:40.008Z,13.90
2022-11-19T17:39:14.823Z,13.82
2022-11-19T17:42:02.022Z,11.40
2022-11-19T17:44:36.575Z,9.90
2022-11-19T17:47:21.132Z,10.85
2022-11-19T17:49:50.115Z,10.93
2022-11-19T17:52:25.106Z,10.13
2022-11-19T17:54:55.084Z,8.85
2022-11-19T17:57:22.076Z,8.50
2022-11-19T17:59:49.032Z,8.77
2022-11-19T18:02:18.510Z,9.15
2022-11-19T18:04:47.024Z,8.43
2022-11-19T18:07:14.683Z,10.48
2022-11-19T18:09:42.077Z,16.60
2022-11-19T18:12:15.580Z,21.60
2022-11-19T18:14:43.216Z,20.70
2022-11-19T18:17:14.736Z,23.33
2022-11-19T18:19:42.208Z,22.42
2022-11-19T18:22:18.843Z,17.65
2022-11-19T18:24:50.620Z,13.95
2022-11-19T18:27:17.811Z,11.93
2022-11-19T18:29:44.880Z,9.90
2022-11-19T18:32:15.391Z,7.97
2022-11-19T18:34:42.978Z,7.40
2022-11-19T18:37:09.959Z,6.95
2022-11-19T18:39:36.984Z,5.53
2022-11-19T18:42:04.265Z,5.40
2022-11-19T18:44:33.994Z,5.95
2022-11-19T18:47:23.440Z,5.75
2022-11-19T18:49:50.454Z,6.10
2022-11-19T18:52:17.643Z,20.50
2022-11-19T18:54:44.826Z,14.90
2022-11-19T18:57:12.811Z,16.05
2022-11-19T18:59:40.004Z,16.42
2022-11-19T19:02:07.361Z,18.13
2022-11-19T19:04:34.368Z,16.88
2022-11-19T19:07:01.407Z,18.73
2022-11-19T19:09:28.594Z,17.10
2022-11-19T19:12:14.392Z,14.95
2022-11-19T19:14:43.088Z,13.32
2022-11-19T19:17:10.642Z,14.10
2022-11-19T19:19:38.068Z,15.80
2022-11-19T19:22:05.892Z,15.95
2022-11-19T19:24:33.019Z,13.45
2022-11-19T19:27:01.119Z,20.73
2022-11-19T19:29:28.275Z,14.40
2022-11-19T19:31:55.259Z,15.27
2022-11-19T19:34:22.180Z,16.30
2022-11-19T19:36:53.250Z,17.02
2022-11-19T19:39:21.182Z,17.83
2022-11-19T19:41:49.335Z,17.23
2022-11-19T19:44:16.631Z,18.27
2022-11-19T19:46:43.558Z,17.08
2022-11-19T19:49:10.507Z,15.77
2022-11-19T19:51:37.511Z,14.82
2022-11-19T19:54:04.596Z,15.00
2022-11-19T19:56:32.772Z,15.10
2022-11-19T19:59:00.546Z,14.10
2022-11-19T20:01:29.976Z,14.13
2022-11-19T20:04:02.969Z,13.52
2022-11-19T20:06:30.157Z,12.27
2022-11-19T20:08:57.156Z,12.10
2022-11-19T20:11:25.712Z,12.52
2022-11-19T20:13:54.494Z,12.68
2022-11-19T20:16:31.948Z,12.43
2022-11-19T20:19:00.342Z,12.35
2022-11-19T20:21:34.050Z,11.68
2022-11-19T20:24:02.511Z,11.18
2022-11-19T20:26:31.509Z,9.60
2022-11-19T20:29:01.611Z,8.13
2022-11-19T20:31:29.833Z,7.60
2022-11-19T20:33:59.364Z,7.60
2022-11-19T20:36:28.674Z,5.97
2022-11-19T20:38:57.778Z,6.50
2022-11-19T20:41:44.463Z,7.22
2022-11-19T20:44:21.971Z,5.93
2022-11-19T20:46:57.993Z,6.03
2022-11-19T20:49:33.044Z,6.60
2022-11-19T20:52:00.184Z,5.60
2022-11-19T20:54:28.118Z,6.28
2022-11-19T20:56:56.565Z,6.30
2022-11-19T20:59:26.155Z,5.60
2022-11-19T21:01:55.150Z,5.38
2022-11-19T21:04:24.034Z,6.13
2022-11-19T21:06:51.066Z,6.10
2022-11-19T21:09:19.809Z,6.30
2022-11-19T21:11:47.612Z,6.07
2022-11-19T21:14:16.137Z,6.40
2022-11-19T21:16:43.096Z,5.55
2022-11-19T21:19:10.834Z,4.88
2022-11-19T21:21:38.046Z,5.30
2022-11-19T21:24:05.447Z,5.22
2022-11-19T21:26:32.502Z,5.28
2022-11-19T21:29:00.271Z,5.50
2022-11-19T21:31:39.245Z,6.55
2022-11-19T21:34:23.369Z,9.25
2022-11-19T21:36:51.064Z,15.73
2022-11-19T21:39:19.592Z,8.88
2022-11-19T21:41:47.075Z,9.82
2022-11-19T21:44:18.289Z,12.25
2022-11-19T21:46:48.297Z,12.68
2022-11-19T21:49:15.246Z,13.13
2022-11-19T21:51:43.078Z,12.73
2022-11-19T21:54:10.098Z,13.23
2022-11-19T21:56:38.767Z,11.73
2022-11-19T21:59:07.116Z,11.80
2022-11-19T22:01:34.168Z,11.52
2022-11-19T22:04:01.228Z,9.45
2022-11-19T22:06:28.133Z,9.18
2022-11-19T22:08:55.488Z,8.95
2022-11-19T22:11:31.839Z,8.10
2022-11-19T22:14:04.007Z,7.10
2022-11-19T22:16:33.467Z,8.00
2022-11-19T22:19:00.502Z,7.45
2022-11-19T22:21:29.215Z,7.95
2022-11-19T22:23:56.522Z,7.00
2022-11-19T22:26:23.527Z,6.55
2022-11-19T22:28:50.667Z,6.05
2022-11-19T22:31:17.709Z,5.40
2022-11-19T22:33:44.748Z,5.68
2022-11-19T22:36:12.123Z,5.18
2022-11-19T22:38:39.448Z,5.57
2022-11-19T22:41:14.287Z,4.78
2022-11-19T22:43:42.227Z,5.63
2022-11-19T22:46:11.136Z,5.07
2022-11-19T22:48:38.627Z,5.82
2022-11-19T22:51:14.341Z,5.50
2022-11-19T22:53:41.443Z,5.53
2022-11-19T22:56:10.382Z,6.15
2022-11-19T22:58:38.165Z,5.45
2022-11-19T23:01:07.602Z,5.68
2022-11-19T23:03:34.915Z,4.85
2022-11-19T23:06:01.887Z,5.15
2022-11-19T23:08:28.794Z,4.78
2022-11-19T23:11:00.371Z,4.03
2022-11-19T23:13:33.249Z,4.00
2022-11-19T23:16:06.116Z,4.25
2022-11-19T23:18:39.094Z,3.08
2022-11-19T23:21:09.261Z,3.28
2022-11-19T23:23:36.291Z,3.33
2022-11-19T23:26:04.551Z,3.17
2022-11-19T23:28:33.536Z,3.47
2022-11-19T23:31:13.359Z,3.72
2022-11-19T23:33:40.644Z,3.50
2022-11-19T23:36:11.657Z,4.03
2022-11-19T23:38:39.815Z,3.38
2022-11-19T23:41:09.138Z,3.80
2022-11-19T23:43:36.532Z,3.50
2022-11-19T23:46:05.915Z,3.28
2022-11-19T23:48:33.678Z,3.97
2022-11-19T23:51:05.551Z,3.60
2022-11-19T23:53:56.558Z,3.50
2022-11-19T23:56:24.925Z,3.47
2022-11-19T23:58:52.561Z,3.58
